sensor_id;sensor_type;location;lat;lon;timestamp;P1;durP1;ratioP1;P2;durP2;ratioP2
26040;SDS011;13816;53.628;9.950;2023-06-05T00:00:54;6.67;;;4.30;;
26040;SDS011;13816;53.628;9.950;2023-06-05T00:03:21;7.40;;;4.20;;
26040;SDS011;13816;53.628;9.950;2023-06-05T00:05:50;6.93;;;4.03;;
26040;SDS011;13816;53.628;9.950;2023-06-05T00:08:18;8.10;;;4.37;;
26040;SDS011;13816;53.628;9.950;2023-06-05T00:10:45;11.00;;;4.47;;
26040;SDS011;13816;53.628;9.950;2023-06-05T00:13:12;6.63;;;4.50;;
26040;SDS011;13816;53.628;9.950;2023-06-05T00:15:39;7.83;;;4.40;;
26040;SDS011;13816;53.628;9.950;2023-06-05T00:18:12;10.63;;;4.47;;
26040;SDS011;13816;53.628;9.950;2023-06-05T00:20:45;12.23;;;5.20;;
26040;SDS011;13816;53.628;9.950;2023-06-05T00:23:24;6.70;;;4.40;;
26040;SDS011;13816;53.628;9.950;2023-06-05T00:25:51;7.30;;;4.57;;
26040;SDS011;13816;53.628;9.950;2023-06-05T00:28:18;10.33;;;4.50;;
26040;SDS011;13816;53.628;9.950;2023-06-05T00:31:04;15.73;;;5.03;;
26040;SDS011;13816;53.628;9.950;2023-06-05T00:33:35;5.90;;;3.97;;
26040;SDS011;13816;53.628;9.950;2023-06-05T00:36:05;7.70;;;4.87;;
26040;SDS011;13816;53.628;9.950;2023-06-05T00:38:32;11.20;;;4.80;;
26040;SDS011;13816;53.628;9.950;2023-06-05T00:40:59;8.60;;;4.60;;
26040;SDS011;13816;53.628;9.950;2023-06-05T00:43:27;5.07;;;4.30;;
26040;SDS011;13816;53.628;9.950;2023-06-05T00:45:59;5.23;;;4.40;;
26040;SDS011;13816;53.628;9.950;2023-06-05T00:48:29;11.63;;;4.80;;
26040;SDS011;13816;53.628;9.950;2023-06-05T00:50:59;9.90;;;4.10;;
26040;SDS011;13816;53.628;9.950;2023-06-05T00:53:26;12.20;;;5.53;;
26040;SDS011;13816;53.628;9.950;2023-06-05T00:55:56;6.43;;;4.87;;
26040;SDS011;13816;53.628;9.950;2023-06-05T00:58:24;8.60;;;4.87;;
26040;SDS011;13816;53.628;9.950;2023-06-05T01:00:52;13.87;;;5.57;;
26040;SDS011;13816;53.628;9.950;2023-06-05T01:03:21;6.90;;;4.10;;
26040;SDS011;13816;53.628;9.950;2023-06-05T01:05:49;7.87;;;4.50;;
26040;SDS011;13816;53.628;9.950;2023-06-05T01:08:16;10.40;;;4.73;;
26040;SDS011;13816;53.628;9.950;2023-06-05T01:10:52;5.10;;;3.90;;
26040;SDS011;13816;53.628;9.950;2023-06-05T01:13:23;6.07;;;4.70;;
26040;SDS011;13816;53.628;9.950;2023-06-05T01:15:52;7.47;;;4.90;;
26040;SDS011;13816;53.628;9.950;2023-06-05T01:18:22;10.57;;;4.80;;
26040;SDS011;13816;53.628;9.950;2023-06-05T01:20:51;9.30;;;4.80;;
26040;SDS011;13816;53.628;9.950;2023-06-05T01:23:18;9.90;;;4.70;;
26040;SDS011;13816;53.628;9.950;2023-06-05T01:25:52;8.63;;;3.90;;
26040;SDS011;13816;53.628;9.950;2023-06-05T01:28:20;7.80;;;4.73;;
26040;SDS011;13816;53.628;9.950;2023-06-05T01:30:56;8.13;;;5.17;;
26040;SDS011;13816;53.628;9.950;2023-06-05T01:33:54;11.30;;;5.30;;
26040;SDS011;13816;53.628;9.950;2023-06-05T01:36:28;13.93;;;5.10;;
26040;SDS011;13816;53.628;9.950;2023-06-05T01:38:58;6.70;;;4.73;;
26040;SDS011;13816;53.628;9.950;2023-06-05T01:41:26;6.83;;;4.60;;
26040;SDS011;13816;53.628;9.950;2023-06-05T01:43:54;9.33;;;5.60;;
26040;SDS011;13816;53.628;9.950;2023-06-05T01:46:23;6.73;;;4.73;;
26040;SDS011;13816;53.628;9.950;2023-06-05T01:48:51;9.90;;;4.77;;
26040;SDS011;13816;53.628;9.950;2023-06-05T01:51:20;10.33;;;4.70;;
26040;SDS011;13816;53.628;9.950;2023-06-05T01:53:47;9.60;;;5.57;;
26040;SDS011;13816;53.628;9.950;2023-06-05T01:56:15;8.27;;;4.70;;
26040;SDS011;13816;53.628;9.950;2023-06-05T01:58:46;7.03;;;4.80;;
26040;SDS011;13816;53.628;9.950;2023-06-05T02:01:14;7.27;;;5.10;;
26040;SDS011;13816;53.628;9.950;2023-06-05T02:03:44;8.83;;;5.30;;
26040;SDS011;13816;53.628;9.950;2023-06-05T02:06:14;8.03;;;5.40;;
26040;SDS011;13816;53.628;9.950;2023-06-05T02:08:44;8.20;;;5.37;;
26040;SDS011;13816;53.628;9.950;2023-06-05T02:11:11;9.53;;;6.17;;
26040;SDS011;13816;53.628;9.950;2023-06-05T02:13:38;6.83;;;5.00;;
26040;SDS011;13816;53.628;9.950;2023-06-05T02:16:09;13.60;;;5.03;;
26040;SDS011;13816;53.628;9.950;2023-06-05T02:18:37;9.63;;;6.10;;
26040;SDS011;13816;53.628;9.950;2023-06-05T02:21:04;8.27;;;5.63;;
26040;SDS011;13816;53.628;9.950;2023-06-05T02:23:31;11.47;;;6.53;;
26040;SDS011;13816;53.628;9.950;2023-06-05T02:25:58;8.10;;;6.20;;
26040;SDS011;13816;53.628;9.950;2023-06-05T02:28:25;9.53;;;6.47;;
26040;SDS011;13816;53.628;9.950;2023-06-05T02:30:54;8.77;;;6.27;;
26040;SDS011;13816;53.628;9.950;2023-06-05T02:33:22;7.90;;;6.00;;
26040;SDS011;13816;53.628;9.950;2023-06-05T02:35:54;10.03;;;6.90;;
26040;SDS011;13816;53.628;9.950;2023-06-05T02:38:23;11.37;;;6.53;;
26040;SDS011;13816;53.628;9.950;2023-06-05T02:40:50;11.80;;;6.87;;
26040;SDS011;13816;53.628;9.950;2023-06-05T02:43:17;13.10;;;7.33;;
26040;SDS011;13816;53.628;9.950;2023-06-05T02:45:46;7.93;;;6.50;;
26040;SDS011;13816;53.628;9.950;2023-06-05T02:48:13;9.83;;;6.53;;
26040;SDS011;13816;53.628;9.950;2023-06-05T02:50:45;10.43;;;6.73;;
26040;SDS011;13816;53.628;9.950;2023-06-05T02:53:12;8.00;;;5.97;;
26040;SDS011;13816;53.628;9.950;2023-06-05T02:55:42;11.87;;;6.60;;
26040;SDS011;13816;53.628;9.950;2023-06-05T02:58:12;14.03;;;7.20;;
26040;SDS011;13816;53.628;9.950;2023-06-05T03:00:45;10.60;;;6.50;;
26040;SDS011;13816;53.628;9.950;2023-06-05T03:03:14;7.90;;;6.00;;
26040;SDS011;13816;53.628;9.950;2023-06-05T03:05:45;7.20;;;5.70;;
26040;SDS011;13816;53.628;9.950;2023-06-05T03:08:16;7.03;;;5.40;;
26040;SDS011;13816;53.628;9.950;2023-06-05T03:10:45;9.10;;;6.33;;
26040;SDS011;13816;53.628;9.950;2023-06-05T03:13:22;15.80;;;7.00;;
26040;SDS011;13816;53.628;9.950;2023-06-05T03:16:45;8.13;;;6.13;;
26040;SDS011;13816;53.628;9.950;2023-06-05T03:19:49;8.20;;;7.03;;
26040;SDS011;13816;53.628;9.950;2023-06-05T03:22:17;10.80;;;7.07;;
26040;SDS011;13816;53.628;9.950;2023-06-05T03:24:45;8.47;;;6.40;;
26040;SDS011;13816;53.628;9.950;2023-06-05T03:27:13;9.70;;;6.77;;
26040;SDS011;13816;53.628;9.950;2023-06-05T03:29:40;14.40;;;7.83;;
26040;SDS011;13816;53.628;9.950;2023-06-05T03:32:09;13.43;;;7.40;;
26040;SDS011;13816;53.628;9.950;2023-06-05T03:34:37;11.10;;;6.83;;
26040;SDS011;13816;53.628;9.950;2023-06-05T03:37:05;6.37;;;5.70;;
26040;SDS011;13816;53.628;9.950;2023-06-05T03:39:32;8.73;;;7.37;;
26040;SDS011;13816;53.628;9.950;2023-06-05T03:41:59;11.63;;;6.93;;
26040;SDS011;13816;53.628;9.950;2023-06-05T03:44:32;9.67;;;6.90;;
26040;SDS011;13816;53.628;9.950;2023-06-05T03:47:00;12.43;;;7.13;;
26040;SDS011;13816;53.628;9.950;2023-06-05T03:50:09;9.43;;;7.00;;
26040;SDS011;13816;53.628;9.950;2023-06-05T03:53:32;10.30;;;7.63;;
26040;SDS011;13816;53.628;9.950;2023-06-05T03:56:45;10.60;;;8.20;;
26040;SDS011;13816;53.628;9.950;2023-06-05T03:59:18;13.23;;;9.47;;
26040;SDS011;13816;53.628;9.950;2023-06-05T04:01:50;12.40;;;9.27;;
26040;SDS011;13816;53.628;9.950;2023-06-05T04:04:18;11.53;;;8.63;;
26040;SDS011;13816;53.628;9.950;2023-06-05T04:06:48;15.27;;;9.23;;
26040;SDS011;13816;53.628;9.950;2023-06-05T04:12:04;15.67;;;10.10;;
26040;SDS011;13816;53.628;9.950;2023-06-05T04:14:32;12.80;;;9.77;;
26040;SDS011;13816;53.628;9.950;2023-06-05T04:16:59;15.40;;;8.73;;
26040;SDS011;13816;53.628;9.950;2023-06-05T04:19:26;11.37;;;8.40;;
26040;SDS011;13816;53.628;9.950;2023-06-05T04:21:55;13.90;;;9.90;;
26040;SDS011;13816;53.628;9.950;2023-06-05T04:24:23;11.60;;;9.23;;
26040;SDS011;13816;53.628;9.950;2023-06-05T04:26:53;12.10;;;9.87;;
26040;SDS011;13816;53.628;9.950;2023-06-05T04:29:21;12.83;;;9.70;;
26040;SDS011;13816;53.628;9.950;2023-06-05T04:31:49;13.83;;;10.63;;
26040;SDS011;13816;53.628;9.950;2023-06-05T04:34:17;14.60;;;10.20;;
26040;SDS011;13816;53.628;9.950;2023-06-05T04:36:46;14.17;;;10.00;;
26040;SDS011;13816;53.628;9.950;2023-06-05T04:39:37;15.23;;;9.63;;
26040;SDS011;13816;53.628;9.950;2023-06-05T04:42:25;15.90;;;10.00;;
26040;SDS011;13816;53.628;9.950;2023-06-05T04:44:56;15.87;;;10.10;;
26040;SDS011;13816;53.628;9.950;2023-06-05T04:47:58;12.73;;;9.67;;
26040;SDS011;13816;53.628;9.950;2023-06-05T04:50:26;23.27;;;10.33;;
26040;SDS011;13816;53.628;9.950;2023-06-05T04:53:14;13.70;;;10.20;;
26040;SDS011;13816;53.628;9.950;2023-06-05T04:55:48;19.03;;;10.10;;
26040;SDS011;13816;53.628;9.950;2023-06-05T04:58:18;14.10;;;10.97;;
26040;SDS011;13816;53.628;9.950;2023-06-05T05:01:06;14.97;;;11.03;;
26040;SDS011;13816;53.628;9.950;2023-06-05T05:03:55;17.27;;;10.60;;
26040;SDS011;13816;53.628;9.950;2023-06-05T05:06:36;14.33;;;11.20;;
26040;SDS011;13816;53.628;9.950;2023-06-05T05:09:04;13.20;;;10.50;;
26040;SDS011;13816;53.628;9.950;2023-06-05T05:11:35;14.87;;;10.63;;
26040;SDS011;13816;53.628;9.950;2023-06-05T05:14:02;19.80;;;11.73;;
26040;SDS011;13816;53.628;9.950;2023-06-05T05:16:29;22.83;;;11.23;;
26040;SDS011;13816;53.628;9.950;2023-06-05T05:18:56;19.27;;;11.40;;
26040;SDS011;13816;53.628;9.950;2023-06-05T05:21:24;19.90;;;12.90;;
26040;SDS011;13816;53.628;9.950;2023-06-05T05:23:52;17.60;;;10.93;;
26040;SDS011;13816;53.628;9.950;2023-06-05T05:26:19;15.90;;;10.50;;
26040;SDS011;13816;53.628;9.950;2023-06-05T05:28:47;23.23;;;12.03;;
26040;SDS011;13816;53.628;9.950;2023-06-05T05:31:14;20.17;;;11.50;;
26040;SDS011;13816;53.628;9.950;2023-06-05T05:33:42;15.87;;;11.70;;
26040;SDS011;13816;53.628;9.950;2023-06-05T05:36:09;17.83;;;10.93;;
26040;SDS011;13816;53.628;9.950;2023-06-05T05:42:25;19.60;;;11.17;;
26040;SDS011;13816;53.628;9.950;2023-06-05T05:45:21;14.30;;;11.13;;
26040;SDS011;13816;53.628;9.950;2023-06-05T05:47:48;18.23;;;12.30;;
26040;SDS011;13816;53.628;9.950;2023-06-05T05:50:16;14.33;;;11.90;;
26040;SDS011;13816;53.628;9.950;2023-06-05T05:57:34;14.97;;;10.40;;
26040;SDS011;13816;53.628;9.950;2023-06-05T06:00:19;16.50;;;12.07;;
26040;SDS011;13816;53.628;9.950;2023-06-05T06:03:16;23.07;;;11.50;;
26040;SDS011;13816;53.628;9.950;2023-06-05T06:09:42;21.57;;;11.30;;
26040;SDS011;13816;53.628;9.950;2023-06-05T06:12:44;27.73;;;11.40;;
26040;SDS011;13816;53.628;9.950;2023-06-05T06:15:37;13.70;;;9.73;;
26040;SDS011;13816;53.628;9.950;2023-06-05T06:18:05;15.57;;;9.97;;
26040;SDS011;13816;53.628;9.950;2023-06-05T06:21:13;14.10;;;10.10;;
26040;SDS011;13816;53.628;9.950;2023-06-05T06:23:56;16.43;;;10.33;;
26040;SDS011;13816;53.628;9.950;2023-06-05T06:27:01;21.53;;;9.70;;
26040;SDS011;13816;53.628;9.950;2023-06-05T06:29:29;10.00;;;8.50;;
26040;SDS011;13816;53.628;9.950;2023-06-05T06:32:03;13.50;;;9.47;;
26040;SDS011;13816;53.628;9.950;2023-06-05T06:34:31;16.73;;;9.40;;
26040;SDS011;13816;53.628;9.950;2023-06-05T06:36:59;8.43;;;7.60;;
26040;SDS011;13816;53.628;9.950;2023-06-05T06:39:27;15.20;;;7.83;;
26040;SDS011;13816;53.628;9.950;2023-06-05T06:41:58;19.37;;;7.80;;
26040;SDS011;13816;53.628;9.950;2023-06-05T06:44:30;16.77;;;7.40;;
26040;SDS011;13816;53.628;9.950;2023-06-05T06:46:58;15.23;;;7.87;;
26040;SDS011;13816;53.628;9.950;2023-06-05T06:49:25;10.13;;;6.10;;
26040;SDS011;13816;53.628;9.950;2023-06-05T06:51:53;8.53;;;6.90;;
26040;SDS011;13816;53.628;9.950;2023-06-05T06:54:20;17.00;;;7.30;;
26040;SDS011;13816;53.628;9.950;2023-06-05T06:56:48;10.83;;;6.90;;
26040;SDS011;13816;53.628;9.950;2023-06-05T06:59:18;12.17;;;6.70;;
26040;SDS011;13816;53.628;9.950;2023-06-05T07:01:45;13.70;;;7.30;;
26040;SDS011;13816;53.628;9.950;2023-06-05T07:04:14;8.50;;;5.60;;
26040;SDS011;13816;53.628;9.950;2023-06-05T07:06:43;9.70;;;5.93;;
26040;SDS011;13816;53.628;9.950;2023-06-05T07:09:11;16.77;;;6.77;;
26040;SDS011;13816;53.628;9.950;2023-06-05T07:11:38;11.70;;;5.73;;
26040;SDS011;13816;53.628;9.950;2023-06-05T07:14:05;12.37;;;5.40;;
26040;SDS011;13816;53.628;9.950;2023-06-05T07:16:34;10.77;;;5.50;;
26040;SDS011;13816;53.628;9.950;2023-06-05T07:19:01;11.67;;;6.07;;
26040;SDS011;13816;53.628;9.950;2023-06-05T07:21:29;13.37;;;5.97;;
26040;SDS011;13816;53.628;9.950;2023-06-05T07:23:56;5.90;;;4.13;;
26040;SDS011;13816;53.628;9.950;2023-06-05T07:26:23;11.20;;;5.50;;
26040;SDS011;13816;53.628;9.950;2023-06-05T07:28:50;13.27;;;5.50;;
26040;SDS011;13816;53.628;9.950;2023-06-05T07:31:17;6.20;;;4.27;;
26040;SDS011;13816;53.628;9.950;2023-06-05T07:33:45;9.50;;;4.63;;
26040;SDS011;13816;53.628;9.950;2023-06-05T07:36:13;12.40;;;5.47;;
26040;SDS011;13816;53.628;9.950;2023-06-05T07:38:42;11.43;;;5.13;;
26040;SDS011;13816;53.628;9.950;2023-06-05T07:41:10;9.63;;;4.37;;
26040;SDS011;13816;53.628;9.950;2023-06-05T07:43:37;8.70;;;4.20;;
26040;SDS011;13816;53.628;9.950;2023-06-05T07:46:08;13.30;;;4.43;;
26040;SDS011;13816;53.628;9.950;2023-06-05T07:48:35;8.13;;;4.20;;
26040;SDS011;13816;53.628;9.950;2023-06-05T07:51:02;8.50;;;4.17;;
26040;SDS011;13816;53.628;9.950;2023-06-05T07:53:30;13.20;;;4.47;;
26040;SDS011;13816;53.628;9.950;2023-06-05T07:55:57;7.23;;;3.70;;
26040;SDS011;13816;53.628;9.950;2023-06-05T07:58:24;5.70;;;3.57;;
26040;SDS011;13816;53.628;9.950;2023-06-05T08:00:51;13.50;;;4.27;;
26040;SDS011;13816;53.628;9.950;2023-06-05T08:03:18;9.80;;;4.47;;
26040;SDS011;13816;53.628;9.950;2023-06-05T08:05:51;7.83;;;4.17;;
26040;SDS011;13816;53.628;9.950;2023-06-05T08:08:18;7.47;;;3.37;;
26040;SDS011;13816;53.628;9.950;2023-06-05T08:10:45;8.17;;;3.93;;
26040;SDS011;13816;53.628;9.950;2023-06-05T08:13:14;6.17;;;3.47;;
26040;SDS011;13816;53.628;9.950;2023-06-05T08:15:41;11.90;;;4.03;;
26040;SDS011;13816;53.628;9.950;2023-06-05T08:18:08;7.30;;;3.80;;
26040;SDS011;13816;53.628;9.950;2023-06-05T08:20:36;9.47;;;4.10;;
26040;SDS011;13816;53.628;9.950;2023-06-05T08:23:02;8.10;;;3.70;;
26040;SDS011;13816;53.628;9.950;2023-06-05T08:25:33;5.93;;;3.43;;
26040;SDS011;13816;53.628;9.950;2023-06-05T08:28:00;9.00;;;3.67;;
26040;SDS011;13816;53.628;9.950;2023-06-05T08:30:27;6.03;;;3.73;;
26040;SDS011;13816;53.628;9.950;2023-06-05T08:32:54;10.27;;;3.67;;
26040;SDS011;13816;53.628;9.950;2023-06-05T08:35:21;8.37;;;2.90;;
26040;SDS011;13816;53.628;9.950;2023-06-05T08:37:48;5.73;;;3.57;;
26040;SDS011;13816;53.628;9.950;2023-06-05T08:40:15;8.07;;;2.90;;
26040;SDS011;13816;53.628;9.950;2023-06-05T08:42:44;4.80;;;3.13;;
26040;SDS011;13816;53.628;9.950;2023-06-05T08:45:12;7.33;;;3.90;;
26040;SDS011;13816;53.628;9.950;2023-06-05T08:47:39;8.73;;;2.93;;
26040;SDS011;13816;53.628;9.950;2023-06-05T08:50:08;4.57;;;2.73;;
26040;SDS011;13816;53.628;9.950;2023-06-05T08:52:37;12.00;;;3.30;;
26040;SDS011;13816;53.628;9.950;2023-06-05T08:55:05;5.50;;;3.30;;
26040;SDS011;13816;53.628;9.950;2023-06-05T08:57:35;5.77;;;3.30;;
26040;SDS011;13816;53.628;9.950;2023-06-05T09:00:06;5.63;;;3.47;;
26040;SDS011;13816;53.628;9.950;2023-06-05T09:02:37;6.93;;;3.07;;
26040;SDS011;13816;53.628;9.950;2023-06-05T09:05:06;3.93;;;2.97;;
26040;SDS011;13816;53.628;9.950;2023-06-05T09:07:34;7.37;;;3.07;;
26040;SDS011;13816;53.628;9.950;2023-06-05T09:10:03;8.27;;;3.77;;
26040;SDS011;13816;53.628;9.950;2023-06-05T09:12:32;4.50;;;2.77;;
26040;SDS011;13816;53.628;9.950;2023-06-05T09:15:21;9.70;;;3.07;;
26040;SDS011;13816;53.628;9.950;2023-06-05T09:20:32;3.37;;;2.87;;
26040;SDS011;13816;53.628;9.950;2023-06-05T09:23:02;5.07;;;3.00;;
26040;SDS011;13816;53.628;9.950;2023-06-05T09:25:46;6.43;;;2.97;;
26040;SDS011;13816;53.628;9.950;2023-06-05T09:28:17;13.17;;;3.97;;
26040;SDS011;13816;53.628;9.950;2023-06-05T09:30:54;6.13;;;2.57;;
26040;SDS011;13816;53.628;9.950;2023-06-05T09:33:26;3.87;;;2.57;;
26040;SDS011;13816;53.628;9.950;2023-06-05T09:36:10;10.83;;;2.70;;
26040;SDS011;13816;53.628;9.950;2023-06-05T09:38:39;5.93;;;2.40;;
26040;SDS011;13816;53.628;9.950;2023-06-05T09:41:08;6.03;;;2.93;;
26040;SDS011;13816;53.628;9.950;2023-06-05T09:43:38;4.80;;;2.77;;
26040;SDS011;13816;53.628;9.950;2023-06-05T09:46:09;3.17;;;2.00;;
26040;SDS011;13816;53.628;9.950;2023-06-05T09:48:38;6.90;;;2.37;;
26040;SDS011;13816;53.628;9.950;2023-06-05T09:51:13;5.40;;;2.90;;
26040;SDS011;13816;53.628;9.950;2023-06-05T09:53:42;3.30;;;2.53;;
26040;SDS011;13816;53.628;9.950;2023-06-05T09:56:14;4.53;;;2.23;;
26040;SDS011;13816;53.628;9.950;2023-06-05T09:58:43;4.37;;;2.50;;
26040;SDS011;13816;53.628;9.950;2023-06-05T10:01:16;5.83;;;2.23;;
26040;SDS011;13816;53.628;9.950;2023-06-05T10:03:54;5.17;;;2.80;;
26040;SDS011;13816;53.628;9.950;2023-06-05T10:06:26;4.90;;;2.30;;
26040;SDS011;13816;53.628;9.950;2023-06-05T10:08:54;3.97;;;2.30;;
26040;SDS011;13816;53.628;9.950;2023-06-05T10:11:23;7.57;;;2.87;;
26040;SDS011;13816;53.628;9.950;2023-06-05T10:13:53;6.67;;;3.03;;
26040;SDS011;13816;53.628;9.950;2023-06-05T10:16:21;3.10;;;2.40;;
26040;SDS011;13816;53.628;9.950;2023-06-05T10:18:52;4.33;;;2.60;;
26040;SDS011;13816;53.628;9.950;2023-06-05T10:21:22;4.87;;;2.50;;
26040;SDS011;13816;53.628;9.950;2023-06-05T10:23:53;6.57;;;2.90;;
26040;SDS011;13816;53.628;9.950;2023-06-05T10:32:09;8.27;;;2.70;;
26040;SDS011;13816;53.628;9.950;2023-06-05T10:40:53;3.07;;;2.30;;
26040;SDS011;13816;53.628;9.950;2023-06-05T10:43:35;5.17;;;2.67;;
26040;SDS011;13816;53.628;9.950;2023-06-05T10:46:31;7.63;;;3.03;;
26040;SDS011;13816;53.628;9.950;2023-06-05T10:51:42;4.33;;;2.30;;
26040;SDS011;13816;53.628;9.950;2023-06-05T10:54:11;10.00;;;2.50;;
26040;SDS011;13816;53.628;9.950;2023-06-05T10:59:23;7.87;;;2.77;;
26040;SDS011;13816;53.628;9.950;2023-06-05T11:07:17;7.20;;;2.60;;
26040;SDS011;13816;53.628;9.950;2023-06-05T11:15:03;2.87;;;2.57;;
26040;SDS011;13816;53.628;9.950;2023-06-05T11:17:31;4.47;;;2.87;;
26040;SDS011;13816;53.628;9.950;2023-06-05T11:20:00;4.93;;;2.40;;
26040;SDS011;13816;53.628;9.950;2023-06-05T11:22:42;13.63;;;2.97;;
26040;SDS011;13816;53.628;9.950;2023-06-05T11:25:25;4.43;;;1.97;;
26040;SDS011;13816;53.628;9.950;2023-06-05T11:27:57;7.60;;;2.43;;
26040;SDS011;13816;53.628;9.950;2023-06-05T11:30:31;5.27;;;2.33;;
26040;SDS011;13816;53.628;9.950;2023-06-05T11:33:13;3.60;;;2.50;;
26040;SDS011;13816;53.628;9.950;2023-06-05T11:35:43;5.00;;;2.50;;
26040;SDS011;13816;53.628;9.950;2023-06-05T11:38:19;4.07;;;2.23;;
26040;SDS011;13816;53.628;9.950;2023-06-05T11:40:51;4.00;;;2.30;;
26040;SDS011;13816;53.628;9.950;2023-06-05T11:43:19;3.90;;;2.27;;
26040;SDS011;13816;53.628;9.950;2023-06-05T11:45:51;7.43;;;2.60;;
26040;SDS011;13816;53.628;9.950;2023-06-05T11:48:19;8.17;;;2.50;;
26040;SDS011;13816;53.628;9.950;2023-06-05T11:50:55;3.97;;;1.83;;
26040;SDS011;13816;53.628;9.950;2023-06-05T11:53:30;3.10;;;2.40;;
26040;SDS011;13816;53.628;9.950;2023-06-05T11:55:58;5.07;;;2.50;;
26040;SDS011;13816;53.628;9.950;2023-06-05T11:58:34;11.40;;;2.77;;
26040;SDS011;13816;53.628;9.950;2023-06-05T12:01:07;4.93;;;3.00;;
26040;SDS011;13816;53.628;9.950;2023-06-05T12:03:41;9.80;;;3.20;;
26040;SDS011;13816;53.628;9.950;2023-06-05T12:06:09;2.23;;;2.03;;
26040;SDS011;13816;53.628;9.950;2023-06-05T12:08:39;6.30;;;2.20;;
26040;SDS011;13816;53.628;9.950;2023-06-05T12:11:27;5.97;;;2.90;;
26040;SDS011;13816;53.628;9.950;2023-06-05T12:13:54;6.77;;;2.60;;
26040;SDS011;13816;53.628;9.950;2023-06-05T12:16:33;4.43;;;2.63;;
26040;SDS011;13816;53.628;9.950;2023-06-05T12:19:02;3.67;;;2.60;;
26040;SDS011;13816;53.628;9.950;2023-06-05T12:21:45;3.30;;;2.30;;
26040;SDS011;13816;53.628;9.950;2023-06-05T12:24:13;2.53;;;2.30;;
26040;SDS011;13816;53.628;9.950;2023-06-05T12:26:54;3.77;;;2.50;;
26040;SDS011;13816;53.628;9.950;2023-06-05T12:29:23;10.43;;;3.10;;
26040;SDS011;13816;53.628;9.950;2023-06-05T12:31:59;4.13;;;2.23;;
26040;SDS011;13816;53.628;9.950;2023-06-05T12:37:36;5.63;;;2.67;;
26040;SDS011;13816;53.628;9.950;2023-06-05T12:40:06;3.60;;;2.47;;
26040;SDS011;13816;53.628;9.950;2023-06-05T12:42:37;6.10;;;2.83;;
26040;SDS011;13816;53.628;9.950;2023-06-05T12:45:06;4.20;;;2.63;;
26040;SDS011;13816;53.628;9.950;2023-06-05T12:47:34;5.20;;;2.03;;
26040;SDS011;13816;53.628;9.950;2023-06-05T12:50:02;10.37;;;3.30;;
26040;SDS011;13816;53.628;9.950;2023-06-05T12:52:31;4.30;;;2.70;;
26040;SDS011;13816;53.628;9.950;2023-06-05T12:54:58;3.57;;;2.87;;
26040;SDS011;13816;53.628;9.950;2023-06-05T12:57:26;5.57;;;3.10;;
26040;SDS011;13816;53.628;9.950;2023-06-05T12:59:54;3.17;;;2.40;;
26040;SDS011;13816;53.628;9.950;2023-06-05T13:02:21;5.40;;;2.97;;
26040;SDS011;13816;53.628;9.950;2023-06-05T13:04:49;2.33;;;2.13;;
26040;SDS011;13816;53.628;9.950;2023-06-05T13:07:16;5.53;;;2.60;;
26040;SDS011;13816;53.628;9.950;2023-06-05T13:09:43;5.93;;;3.00;;
26040;SDS011;13816;53.628;9.950;2023-06-05T13:12:10;5.60;;;2.30;;
26040;SDS011;13816;53.628;9.950;2023-06-05T13:14:37;7.70;;;2.63;;
26040;SDS011;13816;53.628;9.950;2023-06-05T13:17:05;10.40;;;2.60;;
26040;SDS011;13816;53.628;9.950;2023-06-05T13:19:32;2.67;;;2.27;;
26040;SDS011;13816;53.628;9.950;2023-06-05T13:21:59;7.73;;;2.83;;
26040;SDS011;13816;53.628;9.950;2023-06-05T13:24:26;4.13;;;2.60;;
26040;SDS011;13816;53.628;9.950;2023-06-05T13:26:53;9.07;;;2.67;;
26040;SDS011;13816;53.628;9.950;2023-06-05T13:29:20;13.57;;;2.80;;
26040;SDS011;13816;53.628;9.950;2023-06-05T13:31:47;4.13;;;2.13;;
26040;SDS011;13816;53.628;9.950;2023-06-05T13:34:14;3.10;;;2.17;;
26040;SDS011;13816;53.628;9.950;2023-06-05T13:36:41;6.77;;;2.73;;
26040;SDS011;13816;53.628;9.950;2023-06-05T13:39:13;5.40;;;3.17;;
26040;SDS011;13816;53.628;9.950;2023-06-05T13:41:41;7.50;;;2.90;;
26040;SDS011;13816;53.628;9.950;2023-06-05T13:44:08;6.40;;;2.70;;
26040;SDS011;13816;53.628;9.950;2023-06-05T13:46:35;4.43;;;2.43;;
26040;SDS011;13816;53.628;9.950;2023-06-05T13:49:02;2.83;;;2.47;;
26040;SDS011;13816;53.628;9.950;2023-06-05T13:51:29;7.93;;;2.57;;
26040;SDS011;13816;53.628;9.950;2023-06-05T13:53:56;3.40;;;2.50;;
26040;SDS011;13816;53.628;9.950;2023-06-05T13:56:23;5.23;;;2.70;;
26040;SDS011;13816;53.628;9.950;2023-06-05T13:58:51;8.10;;;2.30;;
26040;SDS011;13816;53.628;9.950;2023-06-05T14:01:18;4.20;;;3.13;;
26040;SDS011;13816;53.628;9.950;2023-06-05T14:03:45;5.73;;;3.03;;
26040;SDS011;13816;53.628;9.950;2023-06-05T14:06:15;5.23;;;2.50;;
26040;SDS011;13816;53.628;9.950;2023-06-05T14:08:43;8.33;;;3.30;;
26040;SDS011;13816;53.628;9.950;2023-06-05T14:11:10;9.80;;;3.37;;
26040;SDS011;13816;53.628;9.950;2023-06-05T14:13:38;3.87;;;2.70;;
26040;SDS011;13816;53.628;9.950;2023-06-05T14:16:05;5.50;;;3.17;;
26040;SDS011;13816;53.628;9.950;2023-06-05T14:18:33;6.53;;;2.50;;
26040;SDS011;13816;53.628;9.950;2023-06-05T14:21:00;9.00;;;3.10;;
26040;SDS011;13816;53.628;9.950;2023-06-05T14:23:27;3.13;;;2.83;;
26040;SDS011;13816;53.628;9.950;2023-06-05T14:25:54;7.60;;;2.87;;
26040;SDS011;13816;53.628;9.950;2023-06-05T14:28:21;5.43;;;2.43;;
26040;SDS011;13816;53.628;9.950;2023-06-05T14:30:49;5.97;;;3.37;;
26040;SDS011;13816;53.628;9.950;2023-06-05T14:33:16;5.57;;;2.33;;
26040;SDS011;13816;53.628;9.950;2023-06-05T14:35:44;3.30;;;2.70;;
26040;SDS011;13816;53.628;9.950;2023-06-05T14:38:11;3.20;;;2.50;;
26040;SDS011;13816;53.628;9.950;2023-06-05T14:40:39;6.37;;;2.80;;
26040;SDS011;13816;53.628;9.950;2023-06-05T14:43:07;3.97;;;2.73;;
26040;SDS011;13816;53.628;9.950;2023-06-05T14:45:34;3.73;;;2.40;;
26040;SDS011;13816;53.628;9.950;2023-06-05T14:48:01;6.43;;;2.97;;
26040;SDS011;13816;53.628;9.950;2023-06-05T14:50:29;6.37;;;2.77;;
26040;SDS011;13816;53.628;9.950;2023-06-05T14:53:02;4.00;;;2.77;;
26040;SDS011;13816;53.628;9.950;2023-06-05T14:55:31;5.97;;;2.63;;
26040;SDS011;13816;53.628;9.950;2023-06-05T14:57:58;2.90;;;2.33;;
26040;SDS011;13816;53.628;9.950;2023-06-05T15:00:25;6.40;;;2.60;;
26040;SDS011;13816;53.628;9.950;2023-06-05T15:02:52;5.67;;;2.70;;
26040;SDS011;13816;53.628;9.950;2023-06-05T15:05:20;11.20;;;2.87;;
26040;SDS011;13816;53.628;9.950;2023-06-05T15:07:47;10.00;;;2.33;;
26040;SDS011;13816;53.628;9.950;2023-06-05T15:10:14;3.80;;;2.90;;
26040;SDS011;13816;53.628;9.950;2023-06-05T15:12:42;4.43;;;3.33;;
26040;SDS011;13816;53.628;9.950;2023-06-05T15:15:09;4.50;;;2.57;;
26040;SDS011;13816;53.628;9.950;2023-06-05T15:17:46;4.90;;;2.77;;
26040;SDS011;13816;53.628;9.950;2023-06-05T15:20:13;4.33;;;2.40;;
26040;SDS011;13816;53.628;9.950;2023-06-05T15:22:41;4.07;;;2.37;;
26040;SDS011;13816;53.628;9.950;2023-06-05T15:25:08;5.10;;;2.80;;
26040;SDS011;13816;53.628;9.950;2023-06-05T15:27:35;4.57;;;2.73;;
26040;SDS011;13816;53.628;9.950;2023-06-05T15:30:03;5.30;;;2.43;;
26040;SDS011;13816;53.628;9.950;2023-06-05T15:32:31;15.33;;;3.40;;
26040;SDS011;13816;53.628;9.950;2023-06-05T15:34:59;3.40;;;2.60;;
26040;SDS011;13816;53.628;9.950;2023-06-05T15:37:26;6.70;;;3.03;;
26040;SDS011;13816;53.628;9.950;2023-06-05T15:39:53;8.80;;;3.10;;
26040;SDS011;13816;53.628;9.950;2023-06-05T15:42:27;3.50;;;2.53;;
26040;SDS011;13816;53.628;9.950;2023-06-05T15:47:39;8.00;;;3.00;;
26040;SDS011;13816;53.628;9.950;2023-06-05T15:50:07;4.50;;;2.77;;
26040;SDS011;13816;53.628;9.950;2023-06-05T15:52:35;4.87;;;2.50;;
26040;SDS011;13816;53.628;9.950;2023-06-05T15:55:03;3.63;;;2.77;;